SAST,Max TemperatureF,Mean TemperatureF,Min TemperatureF,Max Dew PointF,MeanDew PointF,Min DewpointF,Max Humidity, Mean Humidity, Min Humidity, Max Sea Level PressureIn, Mean Sea Level PressureIn, Min Sea Level PressureIn, Max VisibilityMiles, Mean VisibilityMiles, Min VisibilityMiles, Max Wind SpeedMPH, Mean Wind SpeedMPH, Max Gust SpeedMPH,PrecipitationIn, CloudCover, Events, WindDirDegrees
2010-10-1,66,60,53,57,55,52,100,88,73,30.01,29.92,29.86,6,6,6,15,4,,0.00,5,,239
2010-10-2,64,58,53,57,55,52,100,92,73,30.01,29.98,29.92,6,6,4,18,7,,0.00,6,,96
2010-10-3,66,62,57,61,58,57,100,96,77,30.18,30.06,29.98,6,5,2,16,8,24,0.00,7,Fog-Rain,121
2010-10-4,66,60,55,61,58,55,100,92,78,30.18,30.13,30.09,6,5,3,25,13,36,0.00,4,Rain,105
2010-10-5,71,62,53,61,57,54,100,87,64,30.09,29.99,29.92,6,4,2,12,5,15,0.00,4,Fog-Rain,111
2010-10-6,77,66,55,63,60,55,100,73,54,29.98,29.89,29.77,6,2,0,9,5,,0.00,3,Fog,106
2010-10-7,84,70,57,57,54,45,88,62,25,29.98,29.81,29.65,6,6,6,14,7,,0.00,1,,131
2010-10-8,64,58,51,57,52,48,100,80,68,30.21,30.10,30.01,6,6,6,23,8,,0.00,5,,251
2010-10-9,66,58,50,57,52,46,100,84,59,30.15,29.97,29.77,6,6,5,14,6,,0.00,3,,91
2010-10-10,71,62,53,57,51,41,100,70,37,29.77,29.71,29.62,6,6,6,20,8,,0.00,2,,252
2010-10-11,59,55,50,55,50,43,100,86,67,30.09,29.89,29.74,6,6,5,22,11,33,0.00,6,Rain,271
2010-10-12,60,52,44,48,43,39,93,71,51,30.30,30.21,30.09,6,6,6,14,10,,0.00,2,,230
2010-10-13,62,52,42,55,49,41,100,85,59,30.30,30.16,30.01,6,5,2,23,8,30,0.00,5,Rain,104
2010-10-14,59,56,51,55,53,50,100,93,82,30.15,30.06,29.98,6,6,2,20,12,26,0.00,6,Rain,228
2010-10-15,59,54,50,54,50,41,100,86,51,30.30,30.22,30.15,6,6,6,10,7,,0.00,5,Rain,259
2010-10-16,64,54,44,55,50,45,100,83,63,30.27,30.20,30.06,6,6,6,16,7,24,0.00,2,,85
2010-10-17,89,70,50,54,44,30,100,47,12,30.06,29.93,29.83,,,,14,6,,0.00,,,73
2010-10-18,66,62,57,59,53,45,83,72,52,29.98,29.87,29.80,6,6,6,22,9,,0.00,4,,255
2010-10-19,68,60,53,55,53,50,94,75,56,29.98,29.94,29.92,6,6,6,14,7,,0.00,3,,256
2010-10-20,75,62,48,57,52,45,94,75,41,29.98,29.78,29.62,6,6,6,14,6,,0.00,2,,88
2010-10-21,62,58,53,55,53,48,100,86,63,29.89,29.83,29.74,6,6,6,15,6,,0.00,5,,209
2010-10-22,66,60,53,54,50,46,100,78,49,30.01,29.91,29.83,6,6,4,15,5,20,0.00,5,Rain,236
2010-10-23,62,56,51,55,51,46,100,85,59,30.04,30.02,29.98,6,6,4,9,5,,0.00,6,Rain,78
2010-10-24,59,56,53,59,55,52,100,99,94,30.01,29.92,29.86,6,4,2,22,6,,0.00,7,Rain,283
2010-10-25,62,58,53,55,52,46,100,84,55,30.24,30.12,29.98,6,6,3,14,8,,0.00,6,Rain,105
2010-10-26,64,55,46,54,47,39,94,71,42,30.24,30.13,30.06,6,6,6,22,8,31,0.00,1,,94
2010-10-27,64,56,48,57,54,48,100,90,73,30.12,30.05,30.01,6,6,4,17,6,,0.00,4,Rain,176
2010-10-28,66,60,55,59,57,55,100,91,68,30.21,30.15,30.12,6,6,6,12,5,,0.00,6,Rain,102
2010-10-29,66,58,50,59,56,50,100,90,73,30.12,30.06,30.01,6,6,6,14,4,,0.00,4,Fog,249
2010-10-30,62,58,55,59,56,50,100,91,72,30.21,30.11,30.06,6,4,1,12,7,,0.00,6,,203
2010-10-31,66,60,55,61,58,55,100,97,78,30.24,30.18,30.12,6,5,1,12,7,,0.00,7,Fog-Rain,189